Time;durP1;ratioP1;P1;durP2;ratioP2;P2;SDS_P1;SDS_P2;PMS_P1;PMS_P2;Temp;Humidity;BMP_temperature;BMP_pressure;BME280_temperature;BME280_humidity;BME280_pressure;Samples;Min_cycle;Max_cycle;Signal;HPM_P1;HPM_P2
2021/06/22 00:01:46;;;;;;;1.10;0.32;;;18.10;65.90;;;;;;6211089;23;20024;-77
2021/06/22 00:04:13;;;;;;;1.10;0.40;;;18.00;66.60;;;;;;6220378;23;20017;-77
2021/06/22 00:06:40;;;;;;;0.77;0.43;;;17.90;66.70;;;;;;6218782;23;20210;-76
2021/06/22 00:09:16;;;;;;;0.77;0.40;;;17.90;66.60;;;;;;6217829;23;20072;-77
2021/06/22 00:11:43;;;;;;;0.95;0.30;;;17.90;66.70;;;;;;6216393;23;20320;-77
2021/06/22 00:14:12;;;;;;;1.15;0.40;;;17.80;66.80;;;;;;6215320;23;20083;-77
2021/06/22 00:16:41;;;;;;;0.60;0.30;;;17.90;66.80;;;;;;6219763;23;20086;-77
2021/06/22 00:19:08;;;;;;;1.23;0.32;;;17.80;67.10;;;;;;6220030;23;20254;-77
2021/06/22 00:21:35;;;;;;;0.70;0.30;;;17.80;67.00;;;;;;6217701;23;20029;-78
2021/06/22 00:24:07;;;;;;;0.82;0.55;;;17.80;68.20;;;;;;6220113;23;20031;-78
2021/06/22 00:26:35;;;;;;;0.30;0.25;;;17.80;67.40;;;;;;6219228;23;20033;-78
2021/06/22 00:29:02;;;;;;;0.68;0.40;;;17.70;67.30;;;;;;6217052;23;20013;-78
2021/06/22 00:31:29;;;;;;;1.58;0.40;;;17.70;67.40;;;;;;6216455;23;20025;-77
2021/06/22 00:33:58;;;;;;;0.95;0.30;;;17.70;67.60;;;;;;6217255;23;20359;-77
2021/06/22 00:36:25;;;;;;;0.68;0.30;;;17.70;67.50;;;;;;6217816;23;20021;-78
2021/06/22 00:38:52;;;;;;;0.30;0.20;;;17.80;67.40;;;;;;6217841;23;20047;-78
2021/06/22 00:41:20;;;;;;;0.52;0.20;;;17.80;67.40;;;;;;6219942;23;20020;-78
2021/06/22 00:43:48;;;;;;;1.15;0.50;;;17.80;67.30;;;;;;6214959;23;20032;-77
2021/06/22 00:46:16;;;;;;;0.70;0.22;;;17.90;67.70;;;;;;6220758;23;20124;-77
2021/06/22 00:48:43;;;;;;;2.28;0.30;;;17.90;67.20;;;;;;6221435;23;20324;-77
2021/06/22 00:51:12;;;;;;;1.42;0.30;;;17.80;67.30;;;;;;6223121;23;20040;-77
2021/06/22 00:53:40;;;;;;;0.83;0.40;;;17.60;67.80;;;;;;6220443;23;20028;-77
2021/06/22 00:56:07;;;;;;;0.90;0.40;;;17.60;67.90;;;;;;6223275;23;20204;-78
2021/06/22 00:58:38;;;;;;;1.58;0.57;;;17.50;68.50;;;;;;6219964;23;20240;-77
2021/06/22 01:01:05;;;;;;;0.80;0.30;;;17.50;68.50;;;;;;6215845;23;20027;-77
2021/06/22 01:03:34;;;;;;;1.17;0.32;;;17.60;68.70;;;;;;6220056;23;20028;-77
2021/06/22 01:06:06;;;;;;;4.70;0.43;;;17.60;68.20;;;;;;6219689;23;20020;-77
2021/06/22 01:08:39;;;;;;;0.45;0.40;;;17.80;67.80;;;;;;6220368;23;20307;-77
2021/06/22 01:11:08;;;;;;;1.73;0.30;;;17.80;67.40;;;;;;6220158;23;20024;-78
2021/06/22 01:13:36;;;;;;;0.80;0.40;;;17.80;67.60;;;;;;6219034;23;20229;-78
2021/06/22 01:16:04;;;;;;;0.98;0.50;;;17.70;67.70;;;;;;6219376;23;20028;-78
2021/06/22 01:18:34;;;;;;;0.80;0.40;;;17.60;68.10;;;;;;6221314;23;20028;-78
2021/06/22 01:21:33;;;;;;;1.23;0.38;;;17.60;68.30;;;;;;6196574;23;20227;-77
2021/06/22 01:24:14;;;;;;;0.52;0.30;;;17.60;68.40;;;;;;6220237;23;20051;-78
2021/06/22 01:26:46;;;;;;;0.22;0.20;;;17.70;68.60;;;;;;6219880;23;20101;-75
2021/06/22 01:29:14;;;;;;;0.90;0.40;;;17.70;68.20;;;;;;6219170;23;20074;-76
2021/06/22 01:31:42;;;;;;;0.50;0.40;;;17.80;68.90;;;;;;6218957;23;20076;-77
2021/06/22 01:34:09;;;;;;;0.73;0.40;;;17.80;68.60;;;;;;6220027;23;20301;-77
2021/06/22 01:36:39;;;;;;;2.28;0.50;;;17.70;69.50;;;;;;6220491;23;20020;-76
2021/06/22 01:39:13;;;;;;;3.15;0.40;;;17.70;69.90;;;;;;6218030;23;20048;-75
2021/06/22 01:41:40;;;;;;;1.73;0.40;;;17.60;70.10;;;;;;6240059;23;20023;-76
2021/06/22 01:44:09;;;;;;;0.80;0.40;;;17.60;70.40;;;;;;6215429;23;20024;-75
2021/06/22 01:46:37;;;;;;;1.08;0.60;;;17.50;70.30;;;;;;6217603;23;20079;-76
2021/06/22 01:49:04;;;;;;;0.60;0.25;;;17.40;70.40;;;;;;6217748;23;20028;-75
2021/06/22 01:51:39;;;;;;;1.92;0.40;;;17.40;70.60;;;;;;6216655;23;20071;-76
2021/06/22 01:54:06;;;;;;;1.85;0.28;;;17.40;70.20;;;;;;6219977;23;20075;-76
2021/06/22 01:56:35;;;;;;;1.25;0.50;;;17.40;70.40;;;;;;6217534;23;20021;-76
2021/06/22 01:59:05;;;;;;;1.77;0.30;;;17.40;70.40;;;;;;6219491;23;20208;-76
2021/06/22 02:01:58;;;;;;;1.33;0.40;;;17.50;70.40;;;;;;6212773;23;20035;-79
2021/06/22 02:04:39;;;;;;;0.32;0.30;;;17.50;70.70;;;;;;6221629;23;20088;-77
2021/06/22 02:07:13;;;;;;;0.73;0.32;;;17.60;69.90;;;;;;6218609;23;20029;-76
2021/06/22 02:10:04;;;;;;;1.17;0.40;;;17.60;69.50;;;;;;6218269;23;20039;-76
2021/06/22 02:12:50;;;;;;;1.08;0.50;;;17.40;69.90;;;;;;6216597;23;20031;-77
2021/06/22 02:15:18;;;;;;;1.00;0.43;;;17.50;70.50;;;;;;6211829;23;20035;-77
2021/06/22 02:17:46;;;;;;;0.98;0.50;;;17.50;69.70;;;;;;6218934;23;20029;-77
2021/06/22 02:20:15;;;;;;;2.30;0.45;;;17.40;70.00;;;;;;6216061;23;20048;-78
2021/06/22 02:22:47;;;;;;;0.60;0.40;;;17.50;69.80;;;;;;6241645;23;20354;-76
2021/06/22 02:25:17;;;;;;;1.08;0.30;;;17.40;69.90;;;;;;6217613;23;20029;-77
2021/06/22 02:27:45;;;;;;;0.68;0.30;;;17.40;70.00;;;;;;6220397;23;20074;-76
2021/06/22 02:30:14;;;;;;;0.77;0.30;;;17.40;70.60;;;;;;6217958;23;20201;-76
2021/06/22 02:32:43;;;;;;;1.42;0.60;;;17.40;70.30;;;;;;6215427;23;20016;-77
2021/06/22 02:35:15;;;;;;;0.38;0.20;;;17.40;71.60;;;;;;6244581;23;20033;-77
2021/06/22 02:37:51;;;;;;;1.17;0.40;;;17.40;70.00;;;;;;6214777;23;20084;-77
2021/06/22 02:40:19;;;;;;;2.03;0.35;;;17.40;70.10;;;;;;6215512;23;20393;-77
2021/06/22 02:42:50;;;;;;;0.57;0.22;;;17.40;70.40;;;;;;6215168;23;20028;-77
2021/06/22 02:45:18;;;;;;;0.93;0.40;;;17.30;70.40;;;;;;6216564;23;20087;-78
2021/06/22 02:47:47;;;;;;;0.73;0.30;;;17.40;70.30;;;;;;6216120;23;20228;-77
2021/06/22 02:50:16;;;;;;;0.20;0.20;;;17.30;70.50;;;;;;6215042;23;20079;-77
2021/06/22 02:52:44;;;;;;;0.60;0.30;;;17.20;70.90;;;;;;6214099;23;20650;-78
2021/06/22 02:55:21;;;;;;;2.10;0.40;;;17.30;70.70;;;;;;6217896;23;20259;-77
2021/06/22 02:58:07;;;;;;;0.93;0.30;;;17.30;70.80;;;;;;6219470;23;20051;-78
2021/06/22 03:00:36;;;;;;;0.63;0.40;;;17.40;70.70;;;;;;6214633;23;20029;-78
2021/06/22 03:03:10;;;;;;;1.17;0.40;;;17.40;70.50;;;;;;6220190;23;20013;-78
2021/06/22 03:05:43;;;;;;;0.57;0.38;;;17.40;70.40;;;;;;6218704;23;20029;-78
2021/06/22 03:08:14;;;;;;;0.88;0.38;;;17.40;70.50;;;;;;6217542;23;20028;-76
2021/06/22 03:10:44;;;;;;;0.32;0.20;;;17.50;70.40;;;;;;6218718;23;20107;-77
2021/06/22 03:13:13;;;;;;;0.77;0.35;;;17.50;70.30;;;;;;6217334;23;20181;-77
2021/06/22 03:15:40;;;;;;;1.23;0.40;;;17.50;70.40;;;;;;6245530;23;20223;-77
2021/06/22 03:18:07;;;;;;;0.60;0.35;;;17.50;70.70;;;;;;6218970;23;20031;-77
2021/06/22 03:20:40;;;;;;;3.10;0.40;;;17.50;70.70;;;;;;6217883;23;20036;-77
2021/06/22 03:23:12;;;;;;;0.80;0.40;;;17.50;70.60;;;;;;6216647;23;20036;-77
2021/06/22 03:25:41;;;;;;;1.38;0.40;;;17.40;71.10;;;;;;6216701;23;20027;-77
2021/06/22 03:28:10;;;;;;;0.90;0.60;;;17.50;70.70;;;;;;6214419;23;20025;-77
2021/06/22 03:30:57;;;;;;;0.50;0.35;;;17.60;70.60;;;;;;6215279;23;20082;-77
2021/06/22 03:33:25;;;;;;;0.80;0.43;;;17.60;70.70;;;;;;6215823;23;20186;-77
2021/06/22 03:35:52;;;;;;;0.93;0.40;;;17.60;70.90;;;;;;6214683;23;20039;-77
2021/06/22 03:38:20;;;;;;;0.65;0.50;;;17.60;71.90;;;;;;6212592;23;20024;-78
2021/06/22 03:40:48;;;;;;;1.13;0.50;;;17.80;70.70;;;;;;6214871;23;20028;-78
2021/06/22 03:43:16;;;;;;;1.48;0.40;;;17.90;70.40;;;;;;6216068;23;20020;-78
2021/06/22 03:45:54;;;;;;;0.47;0.28;;;18.10;70.00;;;;;;6215297;23;20098;-78
2021/06/22 03:48:23;;;;;;;1.30;0.40;;;18.10;70.50;;;;;;6216414;23;20324;-78
2021/06/22 03:50:50;;;;;;;0.40;0.30;;;18.20;69.30;;;;;;6214239;23;20087;-77
2021/06/22 03:53:18;;;;;;;2.50;0.40;;;18.20;69.10;;;;;;6212539;23;20231;-77
2021/06/22 03:55:46;;;;;;;6.45;0.60;;;18.20;69.80;;;;;;6218371;23;20024;-76
2021/06/22 03:58:30;;;;;;;2.20;1.10;;;18.30;68.90;;;;;;6214158;23;20035;-78
2021/06/22 04:00:59;;;;;;;1.10;0.47;;;18.30;69.40;;;;;;6211123;23;20216;-77
2021/06/22 04:03:31;;;;;;;1.90;0.40;;;18.20;68.50;;;;;;6213577;23;20074;-77
2021/06/22 04:06:19;;;;;;;0.75;0.52;;;18.20;68.70;;;;;;6214069;23;20043;-77
2021/06/22 04:08:49;;;;;;;2.10;0.45;;;18.30;69.10;;;;;;6214454;23;20052;-77
2021/06/22 04:11:20;;;;;;;1.08;0.32;;;18.30;68.80;;;;;;6214831;23;20035;-77
2021/06/22 04:13:49;;;;;;;0.40;0.30;;;18.40;67.60;;;;;;6213940;23;20051;-77
2021/06/22 04:16:17;;;;;;;;;;;18.30;67.40;;;;;;6214990;23;20350;-78
2021/06/22 04:18:46;;;;;;;2.38;0.50;;;18.20;67.30;;;;;;6215552;23;19963;-77
2021/06/22 04:21:18;;;;;;;0.95;0.47;;;18.20;67.40;;;;;;6219749;23;20032;-77
2021/06/22 04:23:47;;;;;;;1.48;0.40;;;18.20;67.50;;;;;;6218606;23;20047;-77
2021/06/22 04:26:17;;;;;;;0.60;0.30;;;18.30;68.00;;;;;;6219100;23;20080;-78
2021/06/22 04:28:45;;;;;;;0.50;0.28;;;18.40;66.60;;;;;;6216498;23;20328;-78
2021/06/22 04:31:15;;;;;;;0.88;0.40;;;18.40;66.20;;;;;;6219164;23;20043;-77
2021/06/22 04:33:42;;;;;;;1.10;0.47;;;18.50;66.40;;;;;;6217299;23;20275;-77
2021/06/22 04:36:10;;;;;;;1.10;0.40;;;18.60;65.90;;;;;;6216357;23;20029;-77
2021/06/22 04:38:37;;;;;;;0.77;0.40;;;18.60;65.80;;;;;;6242608;23;20035;-78
2021/06/22 04:41:05;;;;;;;0.35;0.20;;;18.50;65.50;;;;;;6219473;23;20028;-77
2021/06/22 04:43:47;;;;;;;0.80;0.40;;;18.60;67.50;;;;;;2231434;22;10021733;-76
2021/06/22 04:46:16;;;;;;;4.88;0.55;;;18.60;65.00;;;;;;4934199;23;10001096;-78
2021/06/22 04:48:44;;;;;;;0.60;0.27;;;18.60;65.90;;;;;;6217292;23;20093;-77
2021/06/22 04:51:11;;;;;;;1.95;0.40;;;18.70;65.20;;;;;;6214965;23;20035;-76
2021/06/22 04:53:39;;;;;;;0.68;0.40;;;18.80;64.30;;;;;;6219479;23;20024;-76
2021/06/22 04:56:07;;;;;;;0.75;0.40;;;18.70;64.60;;;;;;6219816;23;20028;-78
2021/06/22 04:58:36;;;;;;;0.40;0.20;;;18.60;64.70;;;;;;6217231;23;20092;-77
2021/06/22 05:01:05;;;;;;;1.30;0.40;;;18.60;65.20;;;;;;6215036;23;20084;-77
2021/06/22 05:03:35;;;;;;;1.70;0.67;;;18.50;65.10;;;;;;6217212;23;20442;-78
2021/06/22 05:06:03;;;;;;;1.63;0.30;;;18.40;65.50;;;;;;6219270;23;20031;-78
2021/06/22 05:08:30;;;;;;;0.90;0.30;;;18.40;65.70;;;;;;6218864;23;20029;-78
2021/06/22 05:10:57;;;;;;;1.13;0.30;;;18.60;65.00;;;;;;6215995;23;20020;-78
2021/06/22 05:13:25;;;;;;;0.90;0.40;;;18.40;65.50;;;;;;6217927;23;20020;-77
2021/06/22 05:15:53;;;;;;;3.40;0.35;;;18.30;65.80;;;;;;6216150;23;20315;-78
2021/06/22 05:18:20;;;;;;;1.27;0.70;;;18.30;65.50;;;;;;6220100;23;20055;-77
2021/06/22 05:20:49;;;;;;;0.60;0.30;;;18.30;65.90;;;;;;6215188;23;20088;-77
2021/06/22 05:23:16;;;;;;;2.03;0.50;;;18.40;65.80;;;;;;6217870;23;20079;-76
2021/06/22 05:25:43;;;;;;;0.40;0.30;;;18.60;65.00;;;;;;6217378;23;20024;-77
2021/06/22 05:28:11;;;;;;;0.45;0.30;;;18.50;65.00;;;;;;6217946;23;20024;-78
2021/06/22 05:30:39;;;;;;;0.40;0.20;;;18.50;65.50;;;;;;6211732;23;20028;-78
2021/06/22 05:33:06;;;;;;;3.03;1.17;;;18.60;64.80;;;;;;6218220;23;20051;-78
2021/06/22 05:35:34;;;;;;;0.50;0.40;;;18.50;66.80;;;;;;6217342;23;20047;-78
2021/06/22 05:38:03;;;;;;;0.52;0.30;;;18.50;65.60;;;;;;6217056;23;20316;-77
2021/06/22 05:40:30;;;;;;;0.68;0.30;;;18.70;65.00;;;;;;6213728;23;20228;-77
2021/06/22 05:42:58;;;;;;;1.58;0.30;;;18.90;64.10;;;;;;6215548;23;20024;-77
2021/06/22 05:45:25;;;;;;;0.45;0.30;;;19.00;63.50;;;;;;6215525;23;20021;-78
2021/06/22 05:47:52;;;;;;;0.57;0.20;;;19.00;63.40;;;;;;6217250;23;20324;-76
2021/06/22 05:50:20;;;;;;;0.50;0.30;;;19.10;63.00;;;;;;6216448;23;20361;-78
2021/06/22 05:52:49;;;;;;;3.33;0.38;;;19.00;63.30;;;;;;6215721;23;20024;-77
2021/06/22 05:55:18;;;;;;;1.08;0.32;;;19.00;64.10;;;;;;6213041;23;20082;-77
2021/06/22 05:57:47;;;;;;;0.40;0.30;;;19.20;63.20;;;;;;6215559;23;20032;-76
2021/06/22 06:00:16;;;;;;;0.50;0.30;;;19.20;63.30;;;;;;6211779;23;20090;-77
2021/06/22 06:02:43;;;;;;;1.08;0.40;;;19.50;62.80;;;;;;6213987;23;20066;-77
2021/06/22 06:05:12;;;;;;;3.17;0.57;;;19.60;62.10;;;;;;6215660;23;20024;-76
2021/06/22 06:07:39;;;;;;;1.70;0.47;;;19.60;62.10;;;;;;6220077;23;20024;-77
2021/06/22 06:10:08;;;;;;;1.90;0.80;;;19.60;62.30;;;;;;6217452;23;20028;-76
2021/06/22 06:12:37;;;;;;;0.68;0.30;;;19.80;61.60;;;;;;6240952;23;20016;-77
2021/06/22 06:15:05;;;;;;;1.45;0.70;;;20.10;60.80;;;;;;6240785;23;20087;-77
2021/06/22 06:17:33;;;;;;;0.55;0.30;;;20.00;61.30;;;;;;6242861;23;20044;-77
2021/06/22 06:20:00;;;;;;;2.72;0.50;;;20.00;61.10;;;;;;6214439;23;20032;-77
2021/06/22 06:22:29;;;;;;;1.42;0.70;;;20.10;61.00;;;;;;6217848;23;20075;-76
2021/06/22 06:24:59;;;;;;;2.10;0.55;;;20.10;60.50;;;;;;6217593;23;20032;-75
2021/06/22 06:27:37;;;;;;;0.82;0.50;;;19.80;60.80;;;;;;6218002;23;20028;-74
2021/06/22 06:30:09;;;;;;;1.02;0.32;;;19.80;61.50;;;;;;6216320;23;20024;-75
2021/06/22 06:32:36;;;;;;;1.23;0.30;;;19.70;62.30;;;;;;6220189;23;20327;-75
2021/06/22 06:35:04;;;;;;;1.10;0.60;;;19.60;61.20;;;;;;6216160;23;20028;-76
2021/06/22 06:37:31;;;;;;;1.77;0.60;;;19.50;61.90;;;;;;6215994;23;20028;-75
2021/06/22 06:39:59;;;;;;;4.25;0.50;;;19.60;62.50;;;;;;6218150;23;20028;-76
2021/06/22 06:42:26;;;;;;;1.50;0.40;;;19.80;61.20;;;;;;6218081;23;20043;-76
2021/06/22 06:44:53;;;;;;;0.85;0.40;;;19.90;61.50;;;;;;6214511;23;20020;-76
2021/06/22 06:47:22;;;;;;;1.15;0.47;;;20.20;60.70;;;;;;6218613;23;20024;-76
2021/06/22 06:49:49;;;;;;;3.10;0.98;;;20.00;60.50;;;;;;6217395;23;20016;-76
2021/06/22 06:52:16;;;;;;;1.42;0.50;;;20.20;60.90;;;;;;6214381;23;20024;-76
2021/06/22 06:54:44;;;;;;;0.65;0.35;;;20.40;59.90;;;;;;6216722;23;20029;-76
2021/06/22 06:57:11;;;;;;;0.52;0.32;;;20.40;60.70;;;;;;6216740;23;20037;-76
2021/06/22 06:59:39;;;;;;;0.57;0.38;;;20.60;60.00;;;;;;6214605;23;20028;-76
2021/06/22 07:02:07;;;;;;;0.93;0.47;;;20.70;59.10;;;;;;6209348;23;20036;-76
2021/06/22 07:04:35;;;;;;;1.50;0.57;;;20.60;59.00;;;;;;6239619;23;20288;-75
2021/06/22 07:07:03;;;;;;;0.70;0.40;;;20.60;59.50;;;;;;6215593;23;20175;-76
2021/06/22 07:09:30;;;;;;;3.05;0.55;;;20.50;59.80;;;;;;6214995;23;20024;-75
2021/06/22 07:11:57;;;;;;;0.93;0.45;;;20.50;59.50;;;;;;6220948;23;20019;-80
2021/06/22 07:14:25;;;;;;;2.25;0.73;;;20.40;59.80;;;;;;6217188;23;20243;-79
2021/06/22 07:16:53;;;;;;;1.48;0.60;;;20.30;60.30;;;;;;6223623;23;20025;-78
2021/06/22 07:19:20;;;;;;;1.73;0.70;;;20.20;60.50;;;;;;6221595;23;20016;-79
2021/06/22 07:21:49;;;;;;;0.93;0.50;;;20.20;60.30;;;;;;6220323;23;20028;-78
2021/06/22 07:24:16;;;;;;;0.52;0.30;;;20.10;60.70;;;;;;6220651;23;20178;-78
2021/06/22 07:26:45;;;;;;;0.30;0.30;;;20.60;59.90;;;;;;6220765;23;20036;-79
2021/06/22 07:29:12;;;;;;;2.33;0.40;;;20.70;59.70;;;;;;6216042;23;20028;-78
2021/06/22 07:31:40;;;;;;;0.60;0.40;;;20.90;59.30;;;;;;6219535;23;20035;-79
2021/06/22 07:34:07;;;;;;;2.42;0.50;;;21.10;58.60;;;;;;6217124;23;20031;-79
2021/06/22 07:36:35;;;;;;;2.05;0.40;;;21.10;58.40;;;;;;6219051;23;20303;-79
2021/06/22 07:39:04;;;;;;;0.90;0.40;;;21.10;57.90;;;;;;6219151;23;20100;-79
2021/06/22 07:41:32;;;;;;;0.88;0.45;;;21.20;58.20;;;;;;6217371;23;20024;-79
2021/06/22 07:43:59;;;;;;;0.52;0.47;;;21.50;57.40;;;;;;6219201;23;20028;-80
2021/06/22 07:46:26;;;;;;;0.63;0.40;;;21.50;56.90;;;;;;6218215;23;20347;-79
2021/06/22 07:48:54;;;;;;;1.05;0.50;;;21.40;57.40;;;;;;6216809;23;20067;-79
2021/06/22 07:51:21;;;;;;;1.50;0.50;;;21.50;58.50;;;;;;6216722;23;20029;-80
2021/06/22 07:53:48;;;;;;;0.80;0.50;;;21.30;57.40;;;;;;6220247;23;20016;-79
2021/06/22 07:56:17;;;;;;;0.68;0.45;;;21.20;57.80;;;;;;6221256;23;20258;-79
2021/06/22 07:58:44;;;;;;;0.65;0.45;;;21.20;58.00;;;;;;6221826;23;20028;-79
2021/06/22 08:01:11;;;;;;;0.40;0.30;;;21.30;57.30;;;;;;6216000;23;20316;-78
2021/06/22 08:03:39;;;;;;;0.63;0.40;;;21.10;57.90;;;;;;6224550;23;20020;-78
2021/06/22 08:06:06;;;;;;;1.40;0.40;;;20.90;58.10;;;;;;6223648;23;20315;-79
2021/06/22 08:08:33;;;;;;;0.90;0.47;;;20.80;59.00;;;;;;6221913;23;20079;-79
2021/06/22 08:11:00;;;;;;;1.10;0.47;;;21.10;58.20;;;;;;6222551;23;20076;-78
2021/06/22 08:13:32;;;;;;;0.38;0.30;;;21.40;58.30;;;;;;6225069;23;20047;-79
2021/06/22 08:16:02;;;;;;;0.77;0.50;;;21.50;57.80;;;;;;6222989;23;20071;-78
2021/06/22 08:18:32;;;;;;;1.70;0.60;;;21.60;57.30;;;;;;6223257;23;20024;-80
2021/06/22 08:21:00;;;;;;;0.70;0.40;;;21.80;56.50;;;;;;6220100;23;20292;-79
2021/06/22 08:23:28;;;;;;;1.10;0.52;;;22.00;56.30;;;;;;6219306;23;20025;-79
2021/06/22 08:25:56;;;;;;;3.67;0.50;;;22.10;55.20;;;;;;6220928;23;20024;-79
2021/06/22 08:28:23;;;;;;;0.57;0.30;;;22.40;55.30;;;;;;6243188;23;20262;-78
2021/06/22 08:30:52;;;;;;;1.17;0.40;;;22.60;54.50;;;;;;6218937;23;20017;-79
2021/06/22 08:33:20;;;;;;;1.63;0.45;;;22.90;53.90;;;;;;6219331;23;20020;-78
2021/06/22 08:35:48;;;;;;;0.43;0.32;;;23.40;52.40;;;;;;6244026;23;20020;-79
2021/06/22 08:38:16;;;;;;;0.95;0.52;;;23.60;51.50;;;;;;6221753;23;20040;-78
2021/06/22 08:40:46;;;;;;;1.75;0.40;;;23.60;51.80;;;;;;6219788;23;20016;-79
2021/06/22 08:43:16;;;;;;;0.65;0.40;;;23.50;52.20;;;;;;6218018;23;20032;-79
2021/06/22 08:45:45;;;;;;;1.15;0.30;;;23.50;53.10;;;;;;6220782;23;20189;-79
2021/06/22 08:48:14;;;;;;;0.70;0.47;;;23.80;51.50;;;;;;6222338;23;20092;-78
2021/06/22 08:50:44;;;;;;;2.58;0.40;;;23.90;50.90;;;;;;6221002;23;20028;-79
2021/06/22 08:53:13;;;;;;;0.77;0.40;;;23.80;52.00;;;;;;6221132;23;20020;-78
2021/06/22 08:55:42;;;;;;;0.57;0.40;;;23.90;51.50;;;;;;6216254;23;20020;-79
2021/06/22 08:58:12;;;;;;;0.77;0.35;;;24.00;50.60;;;;;;6218972;23;20224;-78
2021/06/22 09:00:41;;;;;;;1.38;0.50;;;23.90;50.70;;;;;;6212893;23;20028;-78
2021/06/22 09:03:12;;;;;;;0.77;0.57;;;23.70;51.30;;;;;;6217516;23;20013;-78
2021/06/22 09:05:42;;;;;;;0.80;0.47;;;23.50;51.60;;;;;;6216557;23;20218;-78
2021/06/22 09:08:17;;;;;;;;;;;23.40;52.70;;;;;;6217685;23;20128;-78
2021/06/22 09:10:44;;;;;;;1.20;0.55;;;23.60;51.70;;;;;;6216747;23;19926;-78
2021/06/22 09:13:14;;;;;;;4.90;0.50;;;23.70;52.10;;;;;;6216427;23;20012;-79
2021/06/22 09:15:45;;;;;;;1.13;0.50;;;23.70;51.50;;;;;;6217932;23;20028;-79
2021/06/22 09:18:27;;;;;;;1.30;0.50;;;23.70;51.50;;;;;;6215463;23;20275;-79
2021/06/22 09:20:57;;;;;;;0.95;0.60;;;23.50;51.50;;;;;;6215183;23;20098;-78
2021/06/22 09:23:26;;;;;;;0.60;0.40;;;23.30;51.90;;;;;;6214819;23;20321;-78
2021/06/22 09:25:56;;;;;;;0.75;0.43;;;23.20;52.70;;;;;;6215040;23;20022;-78
2021/06/22 09:28:27;;;;;;;0.70;0.40;;;23.20;53.20;;;;;;6217935;23;20024;-78
2021/06/22 09:30:58;;;;;;;1.20;0.73;;;23.40;53.10;;;;;;6215957;23;20028;-78
2021/06/22 09:33:34;;;;;;;1.00;0.50;;;23.70;52.70;;;;;;6215963;23;20016;-78
2021/06/22 09:36:09;;;;;;;1.15;0.65;;;24.10;51.10;;;;;;6214710;23;20233;-78
2021/06/22 09:38:39;;;;;;;2.55;0.60;;;23.90;51.30;;;;;;6216429;23;20078;-78
2021/06/22 09:41:15;;;;;;;0.85;0.43;;;23.90;51.60;;;;;;6214614;23;20269;-80
2021/06/22 09:43:44;;;;;;;2.50;0.60;;;24.00;51.70;;;;;;6216553;23;20046;-80
2021/06/22 09:46:13;;;;;;;1.02;0.57;;;24.30;50.70;;;;;;6215754;23;20024;-79
2021/06/22 09:48:52;;;;;;;0.90;0.40;;;24.80;50.20;;;;;;6217472;23;20036;-80
2021/06/22 09:51:29;;;;;;;1.23;0.70;;;25.00;48.70;;;;;;6212906;23;20028;-79
2021/06/22 09:54:07;;;;;;;2.50;0.45;;;25.00;48.80;;;;;;6219468;23;20025;-80
2021/06/22 09:56:35;;;;;;;1.75;0.57;;;25.10;49.00;;;;;;6216454;23;20339;-80
2021/06/22 09:59:08;;;;;;;1.05;0.60;;;25.10;48.80;;;;;;6217787;23;20032;-80
2021/06/22 10:01:36;;;;;;;0.77;0.43;;;25.30;48.40;;;;;;6214338;23;20051;-79
2021/06/22 10:04:15;;;;;;;1.10;0.80;;;25.20;48.50;;;;;;6241316;23;20024;-81
2021/06/22 10:06:49;;;;;;;0.90;0.47;;;25.10;48.60;;;;;;6214491;23;20055;-80
2021/06/22 10:09:21;;;;;;;1.38;0.68;;;24.60;49.00;;;;;;6217682;23;20024;-80
2021/06/22 10:11:55;;;;;;;1.25;0.80;;;24.20;51.20;;;;;;6215551;23;20066;-80
2021/06/22 10:14:27;;;;;;;2.20;0.85;;;24.30;50.10;;;;;;6219153;23;20029;-80
2021/06/22 10:16:54;;;;;;;1.63;0.75;;;24.30;50.10;;;;;;6218630;23;20032;-81
2021/06/22 10:19:23;;;;;;;0.77;0.50;;;24.20;50.70;;;;;;6218633;23;20029;-80
2021/06/22 10:21:54;;;;;;;1.08;0.50;;;24.30;50.60;;;;;;6216453;23;20039;-81
2021/06/22 10:24:23;;;;;;;1.38;0.80;;;24.50;49.80;;;;;;6217204;23;20028;-81
2021/06/22 10:26:52;;;;;;;1.00;0.50;;;24.80;49.40;;;;;;6216876;23;20039;-79
2021/06/22 10:29:36;;;;;;;0.93;0.57;;;24.60;49.30;;;;;;6220266;23;20025;-80
2021/06/22 10:32:04;;;;;;;1.45;0.60;;;24.90;49.80;;;;;;6219093;23;20324;-80
2021/06/22 10:34:32;;;;;;;0.95;0.63;;;25.50;48.40;;;;;;6216615;23;20035;-80
2021/06/22 10:37:09;;;;;;;0.75;0.60;;;25.40;47.60;;;;;;6217603;23;20032;-80
2021/06/22 10:39:42;;;;;;;1.80;0.70;;;25.30;48.50;;;;;;6218058;23;20040;-80
2021/06/22 10:42:12;;;;;;;1.17;0.68;;;25.60;47.50;;;;;;6218127;23;20480;-80
2021/06/22 10:44:50;;;;;;;1.67;0.52;;;25.60;47.60;;;;;;6216137;23;20012;-80
2021/06/22 10:47:33;;;;;;;0.88;0.57;;;25.70;47.60;;;;;;6215711;23;20071;-81
2021/06/22 10:50:06;;;;;;;0.73;0.52;;;26.20;46.80;;;;;;6213389;23;20078;-80
2021/06/22 10:52:56;;;;;;;2.35;0.77;;;26.50;46.10;;;;;;6216915;23;20287;-81
2021/06/22 10:55:58;;;;;;;1.48;0.50;;;26.60;45.50;;;;;;6216158;23;20055;-80
2021/06/22 10:58:25;;;;;;;1.05;0.55;;;28.00;42.90;;;;;;6099554;23;20021;-79
2021/06/22 11:01:18;;;;;;;1.10;0.52;;;28.30;42.20;;;;;;6118195;23;20029;-80
2021/06/22 11:03:45;;;;;;;1.35;0.50;;;28.00;42.00;;;;;;6123478;23;20461;-79
2021/06/22 11:06:29;;;;;;;1.55;0.77;;;27.80;42.30;;;;;;6124003;23;20042;-80
2021/06/22 11:09:20;;;;;;;2.80;0.90;;;27.20;43.00;;;;;;6107042;23;20090;-80
2021/06/22 11:11:47;;;;;;;2.83;0.40;;;27.40;43.20;;;;;;6213287;23;20273;-79
2021/06/22 11:14:16;;;;;;;1.60;0.70;;;27.60;42.80;;;;;;6221651;23;20220;-79
2021/06/22 11:16:44;;;;;;;2.83;0.70;;;27.20;43.10;;;;;;6220576;23;20038;-80
2021/06/22 11:19:15;;;;;;;1.90;0.63;;;26.60;43.90;;;;;;6218908;23;20017;-80
2021/06/22 11:21:54;;;;;;;0.93;0.60;;;26.10;45.60;;;;;;6213864;23;20033;-80
2021/06/22 11:24:28;;;;;;;0.75;0.50;;;26.00;45.70;;;;;;6215182;23;20243;-80
2021/06/22 11:27:05;;;;;;;3.00;0.47;;;25.50;46.60;;;;;;6212584;23;20365;-79
2021/06/22 11:29:47;;;;;;;0.40;0.40;;;25.30;47.50;;;;;;6213729;23;20036;-79
2021/06/22 11:32:37;;;;;;;1.23;0.55;;;25.30;47.70;;;;;;6218828;23;20024;-79
2021/06/22 11:35:13;;;;;;;3.47;0.63;;;25.30;48.10;;;;;;6216157;23;20494;-80
2021/06/22 11:37:42;;;;;;;1.08;0.60;;;25.30;48.20;;;;;;6217062;23;20075;-81
2021/06/22 11:40:13;;;;;;;1.30;0.60;;;25.50;48.00;;;;;;6214948;23;20059;-79
2021/06/22 11:42:43;;;;;;;1.33;0.57;;;25.60;47.70;;;;;;6215641;23;20020;-80
2021/06/22 11:45:28;;;;;;;0.82;0.50;;;25.40;47.90;;;;;;6213747;23;20025;-80
2021/06/22 11:47:59;;;;;;;1.45;0.50;;;25.10;48.60;;;;;;6214662;23;20051;-80
2021/06/22 11:50:30;;;;;;;1.40;0.60;;;24.90;49.00;;;;;;6216272;23;20070;-79
2021/06/22 11:53:12;;;;;;;0.47;0.35;;;25.00;49.30;;;;;;6216718;23;20268;-79
2021/06/22 11:55:51;;;;;;;1.02;0.60;;;25.00;49.40;;;;;;6215872;23;20047;-80
2021/06/22 11:58:27;;;;;;;1.80;0.50;;;25.10;49.20;;;;;;6216841;23;20035;-80
2021/06/22 12:00:57;;;;;;;0.47;0.40;;;24.90;49.50;;;;;;6213860;23;20326;-79
2021/06/22 12:03:30;;;;;;;1.98;0.70;;;25.10;49.10;;;;;;6215338;23;20032;-80
2021/06/22 12:06:09;;;;;;;1.40;0.65;;;25.00;49.70;;;;;;6218510;23;20021;-80
2021/06/22 12:08:38;;;;;;;1.13;0.55;;;24.90;49.80;;;;;;6217443;23;20029;-79
2021/06/22 12:11:07;;;;;;;2.75;0.57;;;24.60;51.10;;;;;;6216243;23;20051;-79
2021/06/22 12:13:37;;;;;;;5.18;0.60;;;24.40;52.20;;;;;;6215165;23;20028;-80
2021/06/22 12:16:18;;;;;;;0.80;0.50;;;24.30;53.10;;;;;;6218317;23;20071;-80
2021/06/22 12:18:46;;;;;;;2.15;0.60;;;24.10;53.10;;;;;;6217327;23;20031;-78
2021/06/22 12:21:13;;;;;;;1.38;0.60;;;24.20;53.20;;;;;;6217622;23;20249;-80
2021/06/22 12:23:42;;;;;;;0.85;0.57;;;24.10;52.90;;;;;;6219238;23;20231;-80
2021/06/22 12:26:13;;;;;;;0.90;0.50;;;24.00;52.80;;;;;;6217474;23;20028;-80
2021/06/22 12:28:42;;;;;;;1.33;0.60;;;23.70;53.30;;;;;;6214639;23;20048;-79
2021/06/22 12:31:09;;;;;;;1.35;0.70;;;23.50;53.80;;;;;;6217340;23;20034;-80
2021/06/22 12:33:41;;;;;;;1.23;0.70;;;23.30;54.30;;;;;;6217692;23;20059;-79
2021/06/22 12:36:10;;;;;;;0.95;0.55;;;23.10;55.90;;;;;;6219360;23;20028;-79
2021/06/22 12:38:39;;;;;;;1.75;0.65;;;23.00;56.30;;;;;;6221467;23;20083;-80
2021/06/22 12:41:10;;;;;;;2.42;0.70;;;22.70;57.60;;;;;;6219727;23;20021;-79
2021/06/22 12:43:49;;;;;;;1.60;0.50;;;22.50;58.50;;;;;;6218404;23;20025;-79
2021/06/22 12:46:18;;;;;;;1.60;0.57;;;22.40;60.00;;;;;;6214879;23;20287;-79
2021/06/22 12:48:46;;;;;;;1.73;1.25;;;22.20;61.10;;;;;;6245999;23;20067;-78
2021/06/22 12:51:15;;;;;;;2.05;0.90;;;22.20;61.20;;;;;;6222637;23;20031;-78
2021/06/22 12:53:49;;;;;;;3.03;0.70;;;22.10;64.40;;;;;;6219820;23;20295;-78
2021/06/22 12:56:20;;;;;;;3.42;0.98;;;21.60;66.60;;;;;;6221485;23;20047;-78
2021/06/22 12:58:53;;;;;;;2.70;0.80;;;21.70;64.70;;;;;;6219390;23;20051;-78
2021/06/22 13:01:33;;;;;;;2.33;0.98;;;21.80;65.10;;;;;;6215705;23;20324;-78
2021/06/22 13:04:01;;;;;;;1.88;0.90;;;22.00;64.50;;;;;;6217724;23;20028;-79
2021/06/22 13:06:31;;;;;;;1.25;0.63;;;22.10;64.00;;;;;;6223035;23;20075;-78